createdAt,value
2023-05-10T00:00:23.573Z,98156.38
2023-05-10T00:02:50.540Z,98182.41
2023-05-10T00:05:17.590Z,98152.25
2023-05-10T00:07:47.397Z,98179.13
2023-05-10T00:10:14.170Z,98193.53
2023-05-10T00:12:41.170Z,98155.63
2023-05-10T00:15:08.897Z,98175.44
2023-05-10T00:17:35.706Z,98200.44
2023-05-10T00:20:02.969Z,98181.22
2023-05-10T00:22:29.530Z,98162.00
2023-05-10T00:24:56.248Z,98173.34
2023-05-10T00:27:25.674Z,98184.28
2023-05-10T00:29:52.276Z,98184.16
2023-05-10T00:32:19.040Z,98149.38
2023-05-10T00:34:45.713Z,98136.13
2023-05-10T00:37:12.368Z,98195.25
2023-05-10T00:39:39.016Z,98173.78
2023-05-10T00:42:05.863Z,98144.91
2023-05-10T00:44:32.950Z,98142.81
2023-05-10T00:47:00.385Z,98150.38
2023-05-10T00:49:27.212Z,98138.69
2023-05-10T00:51:54.051Z,98197.28
2023-05-10T00:54:21.605Z,98179.13
2023-05-10T00:56:50.110Z,98206.50
2023-05-10T00:59:18.666Z,98175.06
2023-05-10T01:01:46.377Z,98157.19
2023-05-10T01:04:14.407Z,98178.44
2023-05-10T01:06:42.991Z,98196.28
2023-05-10T01:09:12.719Z,98179.91
2023-05-10T01:11:41.063Z,98155.41
2023-05-10T01:14:08.079Z,98197.72
2023-05-10T01:16:38.574Z,98182.31
2023-05-10T01:19:12.996Z,98193.66
2023-05-10T01:21:58.086Z,98188.66
2023-05-10T01:24:24.866Z,98186.59
2023-05-10T01:26:51.675Z,98188.53
2023-05-10T01:29:37.976Z,98200.16
2023-05-10T01:32:26.025Z,98209.97
2023-05-10T01:35:01.917Z,98216.03
2023-05-10T01:37:37.383Z,98182.00
2023-05-10T01:40:09.968Z,98214.84
2023-05-10T01:42:52.982Z,98199.25
2023-05-10T01:45:30.034Z,98195.78
2023-05-10T01:48:07.783Z,98225.75
2023-05-10T01:50:37.179Z,98229.44
2023-05-10T01:53:09.035Z,98234.81
2023-05-10T01:55:49.773Z,98198.25
2023-05-10T01:58:23.632Z,98233.63
2023-05-10T02:00:52.981Z,98221.41
2023-05-10T02:03:23.122Z,98193.53
2023-05-10T02:05:51.725Z,98234.06
2023-05-10T02:08:22.895Z,98197.03
2023-05-10T02:10:53.136Z,98236.13
2023-05-10T02:13:20.872Z,98225.19
2023-05-10T02:15:49.842Z,98223.28
2023-05-10T02:18:18.255Z,98233.09
2023-05-10T02:20:47.526Z,98227.09
2023-05-10T02:23:18.200Z,98240.38
2023-05-10T02:25:48.297Z,98183.06
2023-05-10T02:28:17.213Z,98205.06
2023-05-10T02:30:44.493Z,98207.59
2023-05-10T02:33:12.775Z,98224.97
2023-05-10T02:35:39.954Z,98221.91
2023-05-10T02:38:08.460Z,98259.38
2023-05-10T02:40:37.602Z,98225.25
2023-05-10T02:43:07.106Z,98236.44
2023-05-10T02:45:36.642Z,98266.47
2023-05-10T02:48:03.931Z,98251.34
2023-05-10T02:50:33.471Z,98262.34
2023-05-10T02:53:10.921Z,98253.88
2023-05-10T02:55:39.938Z,98259.69
2023-05-10T02:58:07.700Z,98253.25
2023-05-10T03:00:34.854Z,98234.91
2023-05-10T03:03:01.481Z,98222.25
2023-05-10T03:05:28.760Z,98226.19
2023-05-10T03:07:59.035Z,98246.28
2023-05-10T03:10:30.520Z,98257.44
2023-05-10T03:13:16.275Z,98276.31
2023-05-10T03:15:55.042Z,98267.78
2023-05-10T03:18:49.258Z,98272.97
2023-05-10T03:21:19.972Z,98265.97
2023-05-10T03:23:57.053Z,98256.25
2023-05-10T03:26:29.494Z,98277.34
2023-05-10T03:29:07.524Z,98290.00
2023-05-10T03:31:34.454Z,98257.53
2023-05-10T03:34:01.316Z,98250.09
2023-05-10T03:36:28.075Z,98274.75
2023-05-10T03:38:55.672Z,98295.00
2023-05-10T03:41:22.588Z,98264.41
2023-05-10T03:43:53.052Z,98257.59
2023-05-10T03:46:19.767Z,98302.31
2023-05-10T03:48:46.638Z,98299.22
2023-05-10T03:51:13.315Z,98265.50
2023-05-10T03:53:40.370Z,98289.72
2023-05-10T03:56:07.230Z,98287.03
2023-05-10T03:58:33.865Z,98297.56
2023-05-10T04:01:00.538Z,98290.97
2023-05-10T04:03:27.550Z,98318.31
2023-05-10T04:06:02.255Z,98291.03
2023-05-10T04:08:29.724Z,98314.78
2023-05-10T04:11:13.143Z,98274.25
2023-05-10T04:13:39.772Z,98295.16
2023-05-10T04:16:06.681Z,98285.63
2023-05-10T04:18:33.796Z,98318.34
2023-05-10T04:21:00.483Z,98321.22
2023-05-10T04:23:29.359Z,98306.53
2023-05-10T04:26:03.913Z,98335.34
2023-05-10T04:28:30.653Z,98325.63
2023-05-10T04:31:08.731Z,98334.09
2023-05-10T04:33:36.552Z,98291.66
2023-05-10T04:36:04.355Z,98308.66
2023-05-10T04:38:32.300Z,98308.66
2023-05-10T04:41:11.339Z,98302.63
2023-05-10T04:43:39.325Z,98319.22
2023-05-10T04:46:07.080Z,98297.47
2023-05-10T04:48:34.588Z,98338.88
2023-05-10T04:51:04.534Z,98305.53
2023-05-10T04:53:31.174Z,98322.53
2023-05-10T04:55:57.930Z,98312.19
2023-05-10T04:58:24.730Z,98330.59
2023-05-10T05:00:51.543Z,98325.88
2023-05-10T05:03:18.394Z,98360.44
2023-05-10T05:05:45.869Z,98353.16
2023-05-10T05:08:12.550Z,98323.16
2023-05-10T05:10:39.697Z,98347.38
2023-05-10T05:13:06.697Z,98322.34
2023-05-10T05:15:34.209Z,98314.88
2023-05-10T05:18:01.281Z,98355.66
2023-05-10T05:20:28.200Z,98328.53
2023-05-10T05:22:56.551Z,98329.75
2023-05-10T05:25:26.126Z,98319.84
2023-05-10T05:27:52.729Z,98313.41
2023-05-10T05:30:19.517Z,98343.59
2023-05-10T05:32:48.017Z,98309.06
2023-05-10T05:35:14.907Z,98352.31
2023-05-10T05:37:41.748Z,98330.56
2023-05-10T05:40:09.240Z,98349.00
2023-05-10T05:42:36.231Z,98373.22
2023-05-10T05:45:03.184Z,98348.59
2023-05-10T05:47:30.007Z,98381.91
2023-05-10T05:49:56.691Z,98356.47
2023-05-10T05:52:26.477Z,98356.03
2023-05-10T05:54:53.170Z,98329.53
2023-05-10T05:57:19.833Z,98388.94
2023-05-10T05:59:47.835Z,98381.91
2023-05-10T06:02:14.698Z,98344.44
2023-05-10T06:04:44.400Z,98392.47
2023-05-10T06:07:11.464Z,98398.31
2023-05-10T06:09:38.787Z,98393.13
2023-05-10T06:12:06.061Z,98394.56
2023-05-10T06:14:32.766Z,98404.53
2023-05-10T06:17:00.880Z,98403.47
2023-05-10T06:19:28.409Z,98410.13
2023-05-10T06:21:55.120Z,98377.41
2023-05-10T06:24:24.761Z,98403.09
2023-05-10T06:26:51.575Z,98408.88
2023-05-10T06:29:18.605Z,98409.31
2023-05-10T06:31:49.384Z,98407.66
2023-05-10T06:34:26.783Z,98403.72
2023-05-10T06:36:53.924Z,98425.88
2023-05-10T06:39:21.640Z,98388.38
2023-05-10T06:41:50.292Z,98379.69
2023-05-10T06:44:20.762Z,98418.00
2023-05-10T06:46:47.882Z,98432.47
2023-05-10T06:49:14.954Z,98439.13
2023-05-10T06:51:41.934Z,98452.00
2023-05-10T06:54:08.669Z,98438.97
2023-05-10T06:56:35.518Z,98435.44
2023-05-10T06:59:02.557Z,98430.91
2023-05-10T07:01:29.393Z,98424.88
2023-05-10T07:03:56.665Z,98432.94
2023-05-10T07:06:32.897Z,98455.75
2023-05-10T07:09:01.643Z,98461.13
2023-05-10T07:11:28.352Z,98425.06
2023-05-10T07:13:57.593Z,98464.22
2023-05-10T07:16:24.583Z,98440.59
2023-05-10T07:18:52.931Z,98444.34
2023-05-10T07:21:19.635Z,98432.13
2023-05-10T07:23:47.779Z,98463.19
2023-05-10T07:26:18.004Z,98424.88
2023-05-10T07:28:48.775Z,98451.59
2023-05-10T07:31:18.306Z,98415.75
2023-05-10T07:33:45.187Z,98440.81
2023-05-10T07:36:11.774Z,98458.22
2023-05-10T07:38:40.817Z,98448.69
2023-05-10T07:41:07.898Z,98464.88
2023-05-10T07:43:34.608Z,98447.25
2023-05-10T07:46:01.744Z,98451.56
2023-05-10T07:48:28.587Z,98445.53
2023-05-10T07:50:57.324Z,98448.88
2023-05-10T07:53:28.463Z,98433.72
2023-05-10T07:55:59.297Z,98454.59
2023-05-10T07:58:26.444Z,98422.66
2023-05-10T08:00:53.329Z,98423.00
2023-05-10T08:03:20.717Z,98445.47
2023-05-10T08:05:47.545Z,98448.31
2023-05-10T08:08:14.096Z,98442.63
2023-05-10T08:10:40.747Z,98452.75
2023-05-10T08:13:07.465Z,98436.47
2023-05-10T08:15:34.153Z,98438.56
2023-05-10T08:18:01.003Z,98453.59
2023-05-10T08:20:27.773Z,98445.69
2023-05-10T08:22:54.474Z,98435.28
2023-05-10T08:25:21.197Z,98443.72
2023-05-10T08:27:47.760Z,98424.22
2023-05-10T08:30:15.070Z,98430.31
2023-05-10T08:32:41.873Z,98439.81
2023-05-10T08:35:08.951Z,98425.22
2023-05-10T08:37:35.827Z,98419.72
2023-05-10T08:40:02.875Z,98446.56
2023-05-10T08:42:32.517Z,98406.13
2023-05-10T08:45:00.570Z,98433.06
2023-05-10T08:47:27.776Z,98407.63
2023-05-10T08:49:55.733Z,98432.22
2023-05-10T08:52:24.613Z,98447.22
2023-05-10T08:54:51.435Z,98438.22
2023-05-10T08:57:21.724Z,98406.47
2023-05-10T08:59:48.855Z,98396.94
2023-05-10T09:02:18.678Z,98439.28
2023-05-10T09:04:45.635Z,98428.41
2023-05-10T09:07:12.456Z,98433.47
2023-05-10T09:09:39.636Z,98445.66
2023-05-10T09:12:07.403Z,98436.44
2023-05-10T09:14:40.476Z,98419.41
2023-05-10T09:17:07.936Z,98417.34
2023-05-10T09:19:35.242Z,98402.78
2023-05-10T09:22:08.130Z,98426.47
2023-05-10T09:24:39.963Z,98425.78
2023-05-10T09:27:07.647Z,98442.50
2023-05-10T09:29:43.989Z,98442.47
2023-05-10T09:32:10.637Z,98416.19
2023-05-10T09:34:40.879Z,98416.94
2023-05-10T09:37:09.170Z,98435.56
2023-05-10T09:39:37.950Z,98422.50
2023-05-10T09:42:11.384Z,98437.50
2023-05-10T09:44:39.100Z,98434.56
2023-05-10T09:47:05.784Z,98432.13
2023-05-10T09:49:32.569Z,98425.81
2023-05-10T09:52:07.492Z,98426.78
2023-05-10T09:54:35.275Z,98430.47
2023-05-10T09:57:02.233Z,98413.03
2023-05-10T09:59:29.697Z,98412.56
2023-05-10T10:02:03.483Z,98422.25
2023-05-10T10:04:30.492Z,98410.81
2023-05-10T10:07:02.475Z,98425.75
2023-05-10T10:09:29.753Z,98415.38
2023-05-10T10:11:57.607Z,98400.78
2023-05-10T10:14:24.961Z,98408.47
2023-05-10T10:17:05.932Z,98394.69
2023-05-10T10:19:37.642Z,98416.03
2023-05-10T10:22:05.398Z,98414.38
2023-05-10T10:24:32.275Z,98412.97
2023-05-10T10:27:09.984Z,98397.91
2023-05-10T10:29:40.604Z,98407.19
2023-05-10T10:32:27.471Z,98379.97
2023-05-10T10:34:56.196Z,98392.72
2023-05-10T10:37:22.959Z,98402.06
2023-05-10T10:39:51.257Z,98362.09
2023-05-10T10:42:48.173Z,98395.00
2023-05-10T10:45:15.310Z,98356.78
2023-05-10T10:47:44.084Z,98391.78
2023-05-10T10:50:13.787Z,98374.59
2023-05-10T10:52:41.949Z,98378.63
2023-05-10T10:55:11.712Z,98373.16
2023-05-10T10:57:48.324Z,98364.13
2023-05-10T11:00:37.862Z,98369.47
2023-05-10T11:03:20.516Z,98346.19
2023-05-10T11:05:52.240Z,98348.84
2023-05-10T11:08:30.310Z,98353.78
2023-05-10T11:10:59.896Z,98359.34
2023-05-10T11:13:44.142Z,98355.19
2023-05-10T11:16:28.844Z,98364.69
2023-05-10T11:19:04.022Z,98354.53
2023-05-10T11:21:32.081Z,98351.59
2023-05-10T11:24:00.442Z,98341.72
2023-05-10T11:26:36.318Z,98354.56
2023-05-10T11:29:05.557Z,98327.47
2023-05-10T11:31:33.246Z,98323.25
2023-05-10T11:34:02.726Z,98329.41
2023-05-10T11:36:34.084Z,98322.16
2023-05-10T11:39:01.142Z,98328.94
2023-05-10T11:41:29.315Z,98341.31
2023-05-10T11:43:57.233Z,98302.72
2023-05-10T11:46:26.229Z,98313.44
2023-05-10T11:48:57.170Z,98328.28
2023-05-10T11:51:28.955Z,98316.03
2023-05-10T11:53:57.622Z,98319.19
2023-05-10T11:56:27.041Z,98303.81
2023-05-10T11:58:56.701Z,98294.22
2023-05-10T12:01:24.455Z,98297.06
2023-05-10T12:03:53.871Z,98312.41
2023-05-10T12:06:22.316Z,98314.97
2023-05-10T12:08:53.468Z,98300.69
2023-05-10T12:11:22.735Z,98306.34
2023-05-10T12:13:50.757Z,98287.94
2023-05-10T12:16:29.127Z,98294.56
2023-05-10T12:19:01.602Z,98304.19
2023-05-10T12:21:34.368Z,98292.75
2023-05-10T12:24:05.853Z,98299.03
2023-05-10T12:26:33.320Z,98294.66
2023-05-10T12:29:19.535Z,98293.84
2023-05-10T12:32:00.497Z,98285.09
2023-05-10T12:34:38.041Z,98274.16
2023-05-10T12:37:05.028Z,98282.38
2023-05-10T12:39:45.851Z,98276.34
2023-05-10T12:42:12.828Z,98273.59
2023-05-10T12:44:40.735Z,98260.19
2023-05-10T12:47:07.476Z,98265.97
2023-05-10T12:49:34.938Z,98263.44
2023-05-10T12:52:01.686Z,98266.44
2023-05-10T12:54:28.800Z,98258.69
2023-05-10T12:56:55.308Z,98270.69
2023-05-10T12:59:21.973Z,98271.16
2023-05-10T13:01:48.544Z,98238.16
2023-05-10T13:04:15.172Z,98264.03
2023-05-10T13:06:42.051Z,98256.63
2023-05-10T13:09:08.745Z,98241.88
2023-05-10T13:11:35.735Z,98251.72
2023-05-10T13:14:04.097Z,98232.03
2023-05-10T13:16:31.030Z,98215.72
2023-05-10T13:18:57.769Z,98234.66
2023-05-10T13:21:26.029Z,98235.06
2023-05-10T13:23:52.905Z,98224.91
2023-05-10T13:26:20.014Z,98224.75
2023-05-10T13:28:46.989Z,98215.63
2023-05-10T13:31:13.466Z,98222.34
2023-05-10T13:33:40.129Z,98220.44
2023-05-10T13:36:07.619Z,98215.47
2023-05-10T13:38:34.227Z,98218.09
2023-05-10T13:41:00.913Z,98215.91
2023-05-10T13:43:27.556Z,98215.72
2023-05-10T13:45:54.177Z,98205.94
2023-05-10T13:48:20.782Z,98212.34
2023-05-10T13:50:48.021Z,98203.47
2023-05-10T13:53:15.499Z,98200.56
2023-05-10T13:55:42.423Z,98183.97
2023-05-10T13:58:09.007Z,98183.72
2023-05-10T14:00:35.553Z,98177.56
2023-05-10T14:03:02.311Z,98180.19
2023-05-10T14:05:29.339Z,98173.00
2023-05-10T14:07:56.264Z,98169.19
2023-05-10T14:10:23.133Z,98177.47
2023-05-10T14:12:51.263Z,98176.03
2023-05-10T14:15:18.076Z,98161.00
2023-05-10T14:17:44.995Z,98142.59
2023-05-10T14:20:12.224Z,98173.38
2023-05-10T14:22:38.846Z,98164.16
2023-05-10T14:25:05.759Z,98163.78
2023-05-10T14:27:32.570Z,98179.22
2023-05-10T14:29:59.254Z,98169.56
2023-05-10T14:32:25.886Z,98178.91
2023-05-10T14:34:52.622Z,98178.69
2023-05-10T14:37:19.240Z,98172.84
2023-05-10T14:39:46.302Z,98169.91
2023-05-10T14:42:12.908Z,98158.16
2023-05-10T14:44:39.563Z,98170.19
2023-05-10T14:47:06.259Z,98179.19
2023-05-10T14:49:32.836Z,98159.28
2023-05-10T14:51:59.379Z,98141.97
2023-05-10T14:54:25.977Z,98169.72
2023-05-10T14:56:52.605Z,98126.50
2023-05-10T14:59:19.195Z,98130.94
2023-05-10T15:01:46.106Z,98166.91
2023-05-10T15:04:14.421Z,98163.75
2023-05-10T15:06:41.907Z,98163.75
2023-05-10T15:09:08.572Z,98152.72
2023-05-10T15:11:35.609Z,98147.09
2023-05-10T15:14:02.853Z,98151.13
2023-05-10T15:16:29.577Z,98128.13
2023-05-10T15:18:56.446Z,98164.53
2023-05-10T15:21:23.085Z,98137.50
2023-05-10T15:23:49.798Z,98127.72
2023-05-10T15:26:16.771Z,98153.47
2023-05-10T15:28:43.842Z,98157.22
2023-05-10T15:31:10.496Z,98146.97
2023-05-10T15:33:39.209Z,98161.59
2023-05-10T15:36:06.107Z,98142.75
2023-05-10T15:38:32.750Z,98132.81
2023-05-10T15:40:59.394Z,98149.84
2023-05-10T15:43:25.968Z,98156.53
2023-05-10T15:45:52.521Z,98156.09
2023-05-10T15:48:19.123Z,98162.34
2023-05-10T15:50:45.963Z,98145.75
2023-05-10T15:53:12.555Z,98152.91
2023-05-10T15:55:39.171Z,98167.09
2023-05-10T15:58:05.817Z,98162.22
2023-05-10T16:00:32.559Z,98160.13
2023-05-10T16:02:59.329Z,98148.09
2023-05-10T16:05:29.291Z,98164.50
2023-05-10T16:07:55.937Z,98154.09
2023-05-10T16:10:22.563Z,98133.59
2023-05-10T16:12:49.183Z,98160.13
2023-05-10T16:15:15.909Z,98152.19
2023-05-10T16:17:42.925Z,98158.72
2023-05-10T16:20:09.869Z,98145.34
2023-05-10T16:22:36.727Z,98160.91
2023-05-10T16:25:03.752Z,98168.00
2023-05-10T16:27:33.295Z,98163.28
2023-05-10T16:29:59.937Z,98164.19
2023-05-10T16:32:26.694Z,98170.50
2023-05-10T16:34:53.499Z,98186.91
2023-05-10T16:37:20.890Z,98190.19
2023-05-10T16:39:48.043Z,98183.00
2023-05-10T16:42:14.653Z,98184.03
2023-05-10T16:44:41.369Z,98192.19
2023-05-10T16:47:08.498Z,98199.84
2023-05-10T16:49:36.180Z,98182.31
2023-05-10T16:52:03.360Z,98178.59
2023-05-10T16:54:30.176Z,98200.69
2023-05-10T16:56:56.855Z,98193.16
2023-05-10T16:59:23.514Z,98175.38
2023-05-10T17:01:50.174Z,98191.47
2023-05-10T17:04:17.680Z,98185.94
2023-05-10T17:06:44.295Z,98200.31
2023-05-10T17:09:11.987Z,98197.53
2023-05-10T17:11:38.747Z,98189.03
2023-05-10T17:14:05.430Z,98184.66
2023-05-10T17:16:32.067Z,98195.28
2023-05-10T17:18:58.864Z,98183.53
2023-05-10T17:21:25.551Z,98198.78
2023-05-10T17:23:52.187Z,98186.31
2023-05-10T17:26:18.752Z,98195.69
2023-05-10T17:28:45.434Z,98167.59
2023-05-10T17:31:12.114Z,98184.78
2023-05-10T17:33:39.238Z,98184.44
2023-05-10T17:36:08.813Z,98163.88
2023-05-10T17:38:36.420Z,98191.16
2023-05-10T17:41:02.942Z,98199.31
2023-05-10T17:43:29.620Z,98198.91
2023-05-10T17:45:56.289Z,98197.13
2023-05-10T17:48:23.033Z,98201.31
2023-05-10T17:50:50.906Z,98201.47
2023-05-10T17:53:18.433Z,98182.22
2023-05-10T17:55:45.308Z,98187.34
2023-05-10T17:58:12.513Z,98227.25
2023-05-10T18:00:39.580Z,98210.56
2023-05-10T18:03:06.372Z,98237.91
2023-05-10T18:05:37.491Z,98241.50
2023-05-10T18:08:05.279Z,98245.94
2023-05-10T18:10:32.265Z,98244.53
2023-05-10T18:12:59.132Z,98229.47
2023-05-10T18:15:26.884Z,98247.25
2023-05-10T18:17:53.574Z,98258.50
2023-05-10T18:20:20.234Z,98274.97
2023-05-10T18:22:47.017Z,98268.94
2023-05-10T18:25:13.826Z,98277.69
2023-05-10T18:27:40.578Z,98298.34
2023-05-10T18:30:10.073Z,98298.56
2023-05-10T18:32:38.363Z,98268.00
2023-05-10T18:35:06.835Z,98308.81
2023-05-10T18:37:33.910Z,98288.81
2023-05-10T18:40:00.738Z,98329.28
2023-05-10T18:42:27.755Z,98294.72
2023-05-10T18:44:55.367Z,98322.84
2023-05-10T18:47:22.145Z,98321.88
2023-05-10T18:49:48.930Z,98290.31
2023-05-10T18:52:16.103Z,98269.19
2023-05-10T18:54:42.740Z,98334.47
2023-05-10T18:57:09.390Z,98273.06
2023-05-10T18:59:36.086Z,98286.28
2023-05-10T19:02:04.563Z,98302.09
2023-05-10T19:04:33.084Z,98284.06
2023-05-10T19:07:02.018Z,98324.56
2023-05-10T19:09:30.058Z,98332.91
2023-05-10T19:11:56.836Z,98324.97
2023-05-10T19:14:26.012Z,98298.81
2023-05-10T19:16:53.484Z,98306.16
2023-05-10T19:19:23.946Z,98312.41
2023-05-10T19:21:51.797Z,98314.88
2023-05-10T19:24:19.717Z,98274.69
2023-05-10T19:26:48.564Z,98295.81
2023-05-10T19:29:15.581Z,98302.56
2023-05-10T19:31:42.400Z,98326.56
2023-05-10T19:34:09.205Z,98322.25
2023-05-10T19:36:36.014Z,98349.03
2023-05-10T19:39:03.902Z,98349.97
2023-05-10T19:41:31.882Z,98368.53
2023-05-10T19:43:58.523Z,98366.69
2023-05-10T19:46:25.454Z,98369.28
2023-05-10T19:48:52.360Z,98390.72
2023-05-10T19:51:18.965Z,98365.94
2023-05-10T19:53:46.007Z,98364.56
2023-05-10T19:56:13.228Z,98352.81
2023-05-10T19:58:40.863Z,98355.75
2023-05-10T20:01:07.961Z,98386.25
2023-05-10T20:03:35.605Z,98361.47
2023-05-10T20:06:02.797Z,98378.06
2023-05-10T20:08:29.842Z,98381.34
2023-05-10T20:10:59.138Z,98329.50
2023-05-10T20:13:26.124Z,98335.94
2023-05-10T20:15:56.630Z,98330.66
2023-05-10T20:18:23.775Z,98329.09
2023-05-10T20:20:59.556Z,98368.88
2023-05-10T20:23:26.811Z,98329.47
2023-05-10T20:25:54.627Z,98368.81
2023-05-10T20:28:26.291Z,98387.69
2023-05-10T20:30:55.769Z,98367.22
2023-05-10T20:33:22.846Z,98366.22
2023-05-10T20:35:52.356Z,98407.63
2023-05-10T20:38:19.112Z,98389.81
2023-05-10T20:40:46.725Z,98398.09
2023-05-10T20:43:13.302Z,98406.75
2023-05-10T20:45:39.972Z,98395.81
2023-05-10T20:48:07.682Z,98367.53
2023-05-10T20:50:34.458Z,98384.69
2023-05-10T20:55:28.433Z,98394.28
2023-05-10T20:57:55.313Z,98404.81
2023-05-10T21:00:22.000Z,98400.72
2023-05-10T21:02:48.931Z,98388.75
2023-05-10T21:05:17.895Z,98400.06
2023-05-10T21:07:44.601Z,98396.63
2023-05-10T21:10:11.657Z,98386.75
2023-05-10T21:12:38.410Z,98370.97
2023-05-10T21:15:05.484Z,98380.59
2023-05-10T21:17:32.083Z,98386.06
2023-05-10T21:19:58.722Z,98376.31
2023-05-10T21:22:25.329Z,98377.88
2023-05-10T21:24:51.974Z,98379.28
2023-05-10T21:27:18.599Z,98387.66
2023-05-10T21:29:45.712Z,98356.38
2023-05-10T21:32:12.352Z,98377.94
2023-05-10T21:34:39.013Z,98381.03
2023-05-10T21:37:05.996Z,98385.16
2023-05-10T21:39:32.609Z,98366.88
2023-05-10T21:42:00.274Z,98376.03
2023-05-10T21:44:26.931Z,98385.25
2023-05-10T21:46:53.588Z,98370.34
2023-05-10T21:49:20.245Z,98360.63
2023-05-10T21:51:47.341Z,98368.53
2023-05-10T21:54:14.029Z,98370.63
2023-05-10T21:56:40.586Z,98402.06
2023-05-10T21:59:07.215Z,98405.38
2023-05-10T22:01:33.925Z,98396.66
2023-05-10T22:04:00.723Z,98404.94
2023-05-10T22:06:27.415Z,98391.28
2023-05-10T22:08:54.312Z,98384.22
2023-05-10T22:11:21.830Z,98373.00
2023-05-10T22:13:48.462Z,98357.66
2023-05-10T22:16:15.568Z,98357.84
2023-05-10T22:18:43.551Z,98370.44
2023-05-10T22:21:10.666Z,98378.72
2023-05-10T22:23:37.382Z,98371.91
2023-05-10T22:26:04.682Z,98354.78
2023-05-10T22:28:31.258Z,98352.25
2023-05-10T22:30:58.386Z,98340.84
2023-05-10T22:33:25.230Z,98342.06
2023-05-10T22:35:52.154Z,98307.69
2023-05-10T22:38:18.860Z,98344.16
2023-05-10T22:40:45.516Z,98354.50
2023-05-10T22:43:12.176Z,98358.91
2023-05-10T22:45:38.833Z,98351.03
2023-05-10T22:48:05.649Z,98361.59
2023-05-10T22:50:32.279Z,98376.72
2023-05-10T22:52:59.091Z,98326.81
2023-05-10T22:55:25.810Z,98368.69
2023-05-10T22:57:52.553Z,98367.03
2023-05-10T23:00:20.060Z,98332.03
2023-05-10T23:02:47.128Z,98372.03
2023-05-10T23:05:14.001Z,98362.50
2023-05-10T23:07:40.804Z,98319.66
2023-05-10T23:10:08.105Z,98354.63
2023-05-10T23:12:35.050Z,98364.78
2023-05-10T23:15:01.659Z,98328.13
2023-05-10T23:17:28.381Z,98362.72
2023-05-10T23:19:55.130Z,98373.06
2023-05-10T23:22:21.839Z,98353.19
2023-05-10T23:24:48.458Z,98368.94
2023-05-10T23:27:15.098Z,98339.13
2023-05-10T23:29:41.731Z,98360.25
2023-05-10T23:32:08.397Z,98357.16
2023-05-10T23:34:35.134Z,98309.94
2023-05-10T23:37:02.347Z,98352.38
2023-05-10T23:39:29.011Z,98342.00
2023-05-10T23:41:55.587Z,98332.50
2023-05-10T23:44:22.197Z,98347.84
2023-05-10T23:46:48.798Z,98306.41
2023-05-10T23:49:15.358Z,98334.78
2023-05-10T23:51:41.998Z,98330.22
2023-05-10T23:54:08.734Z,98336.88
2023-05-10T23:56:35.413Z,98321.97
2023-05-10T23:59:01.940Z,98329.59
